Bhakkar Weather



Bhakkar's Current Weather

Temprature 33.15o clear sky

clear sky

Rain: 0 %

Min Temprature33.15o
Max Temprature33.15o
Humidity32
Wind Speed3.96 m/h
Sun Rise05:45:37
Sun Set18:51:48
Current Time: 23-Aug-2019 05:49:11
Lat/Lon: 31.63, 71.07




Bhakkar's Geo Location



Bhakkar's Weather Forecast

Time Overall Temp Min Temp Max Temp Humidity Wind Speed Rain
23-Aug-2019 (Fri)
08:00:00 clear sky 35.090 35.087 35.090 27 2.8 m/h 0 %
11:00:00 clear sky 39.550 39.550 39.550 20 2.86 m/h 0 %
14:00:00 clear sky 42.030 42.030 42.031 17 2.63 m/h 0 %
17:00:00 clear sky 42.610 42.610 42.611 14 2.39 m/h 0 %
20:00:00 clear sky 39.550 39.550 39.550 18 4.28 m/h 0 %
23:00:00 clear sky 37.942 37.942 37.942 19 2.9 m/h 0 %
24-Aug-2019 (Sat)
02:00:00 clear sky 35.731 35.731 35.731 23 3.43 m/h 0 %
05:00:00 clear sky 33.755 33.755 33.755 28 2.99 m/h 0 %
08:00:00 clear sky 36.287 36.287 36.287 25 3.46 m/h 0 %
11:00:00 clear sky 41.369 41.369 41.369 18 4.07 m/h 0 %
14:00:00 clear sky 43.769 43.769 43.769 14 3.48 m/h 0 %
17:00:00 clear sky 43.923 43.923 43.923 11 2.81 m/h 0 %
20:00:00 clear sky 40.450 40.450 40.450 14 3.04 m/h 0 %
23:00:00 clear sky 38.369 38.369 38.369 20 6.09 m/h 0 %
25-Aug-2019 (Sun)
02:00:00 clear sky 36.031 36.031 36.031 24 4.83 m/h 0 %
05:00:00 clear sky 33.657 33.657 33.657 28 1.55 m/h 0 %
08:00:00 clear sky 36.814 36.814 36.814 22 1.02 m/h 0 %
11:00:00 clear sky 41.516 41.516 41.516 16 3.57 m/h 0 %
14:00:00 clear sky 44.150 44.150 44.150 13 1.88 m/h 0 %
17:00:00 clear sky 44.650 44.650 44.650 11 2.12 m/h 0 %
20:00:00 clear sky 40.781 40.781 40.781 15 2.82 m/h 0 %
23:00:00 clear sky 38.711 38.711 38.711 19 4.81 m/h 0 %
26-Aug-2019 (Mon)
02:00:00 clear sky 36.065 36.065 36.065 24 3.05 m/h 0 %
05:00:00 clear sky 34.350 34.350 34.350 28 3.65 m/h 0 %
08:00:00 clear sky 35.667 35.667 35.667 27 4.34 m/h 0 %
11:00:00 clear sky 39.472 39.472 39.472 26 5.03 m/h 0 %
14:00:00 clear sky 42.384 42.384 42.384 21 4.64 m/h 0 %
17:00:00 clear sky 42.520 42.520 42.520 19 3.26 m/h 0 %
20:00:00 broken clouds 39.772 39.772 39.772 23 2.68 m/h 0 %
23:00:00 scattered clouds 38.014 38.014 38.014 25 3.47 m/h 0 %
27-Aug-2019 (Tue)
02:00:00 overcast clouds 35.716 35.716 35.716 36 5.47 m/h 0 %
05:00:00 overcast clouds 33.850 33.850 33.850 41 3.57 m/h 0 %
08:00:00 broken clouds 35.535 35.535 35.535 39 3.52 m/h 0 %
11:00:00 broken clouds 39.836 39.836 39.836 26 2.32 m/h 0 %
14:00:00 overcast clouds 42.836 42.836 42.836 20 2.34 m/h 0 %
17:00:00 overcast clouds 43.465 43.465 43.465 18 4.12 m/h 0 %
20:00:00 overcast clouds 40.450 40.450 40.450 22 3.22 m/h 0 %
23:00:00 overcast clouds 38.250 38.250 38.250 29 4.8 m/h 0 %
28-Aug-2019 (Wed)
02:00:00 light rain 35.857 35.857 35.857 35 4.83 m/h 19 %
05:00:00 light rain 35.172 35.172 35.172 36 2.6 m/h 19 %


Bhakkar's Tourist Spots

Historical Places in Bhakkar

Famous Cities (61)